Saturday, February 28, 2015, 8:51 AM EST

KUNV, State College, University Park Airport

Location: State College, PA, United States Lat: 40.85
Local Time: 8:51 AM EST (13:51 GMT) Lon: -77.85
Time Zone: US/Eastern Elev: 1240 ft

Show me the last for .
Show Decoded

2015-02-28 07:53 METAR KUNV 281253Z 00000KT 10SM SKC M17/M21 A3074 =
2015-02-28 06:53 METAR KUNV 281153Z 00000KT 10SM SKC M18/M21 A3073 =
2015-02-28 05:53 METAR KUNV 281053Z 00000KT 10SM SKC M17/M21 A3070 =
2015-02-28 05:35 METAR KUNV 281035Z AUTO 00000KT 10SM CLR M18/M22 A3069 RMK AO2 T11781219 =
2015-02-28 05:15 METAR KUNV 281015Z AUTO 00000KT 10SM CLR M15/M21 A3069 RMK AO2 T11541209 =
2015-02-28 04:55 METAR KUNV 280955Z AUTO 26003KT 10SM CLR M16/M21 A3069 RMK AO2 T11581212 =
2015-02-28 04:35 METAR KUNV 280935Z AUTO 26003KT 10SM CLR M15/M21 A3067 RMK AO2 T11551207 =
2015-02-28 04:15 METAR KUNV 280915Z AUTO 23004KT 10SM CLR M16/M21 A3066 RMK AO2 T11621215 =
2015-02-28 03:35 METAR KUNV 280835Z AUTO 00000KT 10SM CLR M17/M22 A3063 RMK AO2 T11721221 =
2015-02-28 03:15 METAR KUNV 280815Z AUTO 04004KT 10SM CLR M15/M21 A3062 RMK AO2 T11521209 =
2015-02-28 02:55 METAR KUNV 280755Z AUTO 00000KT 10SM CLR M15/M21 A3062 RMK AO2 T11521213 =
2015-02-28 02:35 METAR KUNV 280735Z AUTO 00000KT 10SM CLR M15/M21 A3062 RMK AO2 T11501211 =
2015-02-28 02:15 METAR KUNV 280715Z AUTO 00000KT 10SM CLR M15/M21 A3062 RMK AO2 T11501215 =
2015-02-28 01:55 METAR KUNV 280655Z AUTO 00000KT 10SM CLR M14/M21 A3063 RMK AO2 T11431211 =
2015-02-28 01:35 METAR KUNV 280635Z AUTO 00000KT 10SM CLR M15/M21 A3063 RMK AO2 T11471208 =
2015-02-28 01:15 METAR KUNV 280615Z AUTO 00000KT 10SM CLR M15/M21 A3063 RMK AO2 T11471211 =
2015-02-28 00:55 METAR KUNV 280555Z AUTO 00000KT 10SM CLR M15/M22 A3062 RMK AO2 T11491217 11092
                 21149 =
2015-02-28 00:35 METAR KUNV 280535Z AUTO 32004KT 10SM CLR M13/M20 A3062 RMK AO2 T11261205 =
2015-02-28 00:15 METAR KUNV 280515Z AUTO 31003KT 10SM CLR M13/M20 A3062 RMK AO2 T11271205 =
2015-02-27 23:55 METAR KUNV 280455Z AUTO 00000KT 10SM CLR M13/M21 A3062 RMK AO2 T11261206 =
2015-02-27 23:35 METAR KUNV 280435Z AUTO 27003KT 10SM CLR M12/M20 A3063 RMK AO2 T11251205 =
2015-02-27 23:15 METAR KUNV 280415Z AUTO 29004KT 10SM CLR M12/M21 A3061 RMK AO2 T11241206 =
2015-02-27 22:35 METAR KUNV 280335Z AUTO 28006KT 10SM CLR M12/M20 A3060 RMK AO2 T11211202 =
2015-02-27 22:15 METAR KUNV 280315Z AUTO 27010KT 10SM CLR M12/M20 A3059 RMK AO2 T11161201 =
2015-02-27 21:55 METAR KUNV 280255Z AUTO 28009KT 10SM CLR M11/M20 A3058 RMK AO2 T11141201 =
2015-02-27 20:53 METAR KUNV 280153Z 28012KT 10SM SKC M11/M20 A3055 =
2015-02-27 19:53 METAR KUNV 280053Z 27011KT 10SM SKC M10/M20 A3052 =
2015-02-27 18:53 METAR KUNV 272353Z 28008KT 10SM SKC M09/M20 A3050 =
2015-02-27 17:53 METAR KUNV 272253Z 28011KT 10SM FEW035 M08/M19 A3047 =
2015-02-27 16:53 METAR KUNV 272153Z 28011KT 10SM FEW035 M07/M18 A3044 =
2015-02-27 15:53 METAR KUNV 272053Z 29012KT 10SM FEW035 M07/M17 A3043 =
2015-02-27 14:53 METAR KUNV 271953Z 30015KT 10SM FEW035 M06/M17 A3040 =
2015-02-27 13:53 METAR KUNV 271853Z 30012KT 10SM SCT035 M06/M16 A3039 =
2015-02-27 12:53 METAR KUNV 271753Z 28012KT 10SM SCT035 M07/M15 A3039 =
2015-02-27 11:53 METAR KUNV 271653Z 28008KT 10SM BKN032 M08/M16 A3041 =
2015-02-27 10:53 METAR KUNV 271553Z 28008KT 10SM SCT032 M09/M16 A3038 =
2015-02-27 08:53 METAR KUNV 271353Z 36003KT 7SM BKN020 M11/M16 A3038 =

Support USWX by starting your Amazon purchase here.